sensor_id;sensor_type;location;lat;lon;timestamp;temperature;humidity
17442;DHT22;8838;50.144;8.176;2024-03-07T00:00:13;2.50;99.90
17442;DHT22;8838;50.144;8.176;2024-03-07T00:02:44;2.30;99.90
17442;DHT22;8838;50.144;8.176;2024-03-07T00:05:11;2.30;99.90
17442;DHT22;8838;50.144;8.176;2024-03-07T00:07:39;2.30;99.90
17442;DHT22;8838;50.144;8.176;2024-03-07T00:10:06;2.20;99.90
17442;DHT22;8838;50.144;8.176;2024-03-07T00:12:34;2.20;99.90
17442;DHT22;8838;50.144;8.176;2024-03-07T00:15:03;2.20;99.90
17442;DHT22;8838;50.144;8.176;2024-03-07T00:17:30;2.10;99.90
17442;DHT22;8838;50.144;8.176;2024-03-07T00:19:57;2.00;99.90
17442;DHT22;8838;50.144;8.176;2024-03-07T00:22:24;2.00;99.90
17442;DHT22;8838;50.144;8.176;2024-03-07T00:24:52;1.90;99.90
17442;DHT22;8838;50.144;8.176;2024-03-07T00:27:19;1.80;99.90
17442;DHT22;8838;50.144;8.176;2024-03-07T00:29:47;1.90;99.90
17442;DHT22;8838;50.144;8.176;2024-03-07T00:32:20;2.00;99.90
17442;DHT22;8838;50.144;8.176;2024-03-07T00:34:47;2.00;99.90
17442;DHT22;8838;50.144;8.176;2024-03-07T00:37:14;2.00;99.90
17442;DHT22;8838;50.144;8.176;2024-03-07T00:39:42;1.90;99.90
17442;DHT22;8838;50.144;8.176;2024-03-07T00:42:09;1.80;99.90
17442;DHT22;8838;50.144;8.176;2024-03-07T00:44:36;1.70;99.90
17442;DHT22;8838;50.144;8.176;2024-03-07T00:47:03;1.70;99.90
17442;DHT22;8838;50.144;8.176;2024-03-07T00:49:32;1.60;99.90
17442;DHT22;8838;50.144;8.176;2024-03-07T00:51:59;1.60;99.90
17442;DHT22;8838;50.144;8.176;2024-03-07T00:54:26;1.70;99.90
17442;DHT22;8838;50.144;8.176;2024-03-07T00:56:53;1.60;99.90
17442;DHT22;8838;50.144;8.176;2024-03-07T00:59:20;1.70;99.90
17442;DHT22;8838;50.144;8.176;2024-03-07T01:01:48;1.60;99.90
17442;DHT22;8838;50.144;8.176;2024-03-07T01:04:15;1.60;99.90
17442;DHT22;8838;50.144;8.176;2024-03-07T01:06:44;1.60;99.90
17442;DHT22;8838;50.144;8.176;2024-03-07T01:09:11;1.60;99.90
17442;DHT22;8838;50.144;8.176;2024-03-07T01:11:42;1.60;99.90
17442;DHT22;8838;50.144;8.176;2024-03-07T01:14:10;1.50;99.90
17442;DHT22;8838;50.144;8.176;2024-03-07T01:16:37;1.50;99.90
17442;DHT22;8838;50.144;8.176;2024-03-07T01:19:03;1.50;99.90
17442;DHT22;8838;50.144;8.176;2024-03-07T01:21:31;1.40;99.90
17442;DHT22;8838;50.144;8.176;2024-03-07T01:24:00;1.50;99.90
17442;DHT22;8838;50.144;8.176;2024-03-07T01:26:27;1.70;99.90
17442;DHT22;8838;50.144;8.176;2024-03-07T01:28:55;1.80;99.90
17442;DHT22;8838;50.144;8.176;2024-03-07T01:31:22;1.80;99.90
17442;DHT22;8838;50.144;8.176;2024-03-07T01:33:49;1.80;99.90
17442;DHT22;8838;50.144;8.176;2024-03-07T01:36:16;1.70;99.90
17442;DHT22;8838;50.144;8.176;2024-03-07T01:38:42;1.60;99.90
17442;DHT22;8838;50.144;8.176;2024-03-07T01:41:11;1.70;99.90
17442;DHT22;8838;50.144;8.176;2024-03-07T01:43:38;1.60;99.90
17442;DHT22;8838;50.144;8.176;2024-03-07T01:46:04;1.50;99.90
17442;DHT22;8838;50.144;8.176;2024-03-07T01:48:32;1.40;99.90
17442;DHT22;8838;50.144;8.176;2024-03-07T01:50:59;1.30;99.90
17442;DHT22;8838;50.144;8.176;2024-03-07T01:53:27;1.20;99.90
17442;DHT22;8838;50.144;8.176;2024-03-07T01:55:56;1.10;99.90
17442;DHT22;8838;50.144;8.176;2024-03-07T01:58:24;1.10;99.90
17442;DHT22;8838;50.144;8.176;2024-03-07T02:00:51;1.20;99.90
17442;DHT22;8838;50.144;8.176;2024-03-07T02:03:18;1.10;99.90
17442;DHT22;8838;50.144;8.176;2024-03-07T02:05:45;1.10;99.90
17442;DHT22;8838;50.144;8.176;2024-03-07T02:08:12;1.00;99.90
17442;DHT22;8838;50.144;8.176;2024-03-07T02:10:41;1.10;99.90
17442;DHT22;8838;50.144;8.176;2024-03-07T02:13:07;1.10;99.90
17442;DHT22;8838;50.144;8.176;2024-03-07T02:15:36;1.20;99.90
17442;DHT22;8838;50.144;8.176;2024-03-07T02:18:03;1.10;99.90
17442;DHT22;8838;50.144;8.176;2024-03-07T02:20:31;1.00;99.90
17442;DHT22;8838;50.144;8.176;2024-03-07T02:22:59;1.00;99.90
17442;DHT22;8838;50.144;8.176;2024-03-07T02:25:26;1.10;99.90
17442;DHT22;8838;50.144;8.176;2024-03-07T02:27:53;1.30;99.90
17442;DHT22;8838;50.144;8.176;2024-03-07T02:30:20;1.40;99.90
17442;DHT22;8838;50.144;8.176;2024-03-07T02:32:47;1.40;99.90
17442;DHT22;8838;50.144;8.176;2024-03-07T02:35:17;1.30;99.90
17442;DHT22;8838;50.144;8.176;2024-03-07T02:37:45;1.20;99.90
17442;DHT22;8838;50.144;8.176;2024-03-07T02:40:14;1.10;99.90
17442;DHT22;8838;50.144;8.176;2024-03-07T02:42:41;1.00;99.90
17442;DHT22;8838;50.144;8.176;2024-03-07T02:45:08;0.90;99.90
17442;DHT22;8838;50.144;8.176;2024-03-07T02:47:40;0.90;99.90
17442;DHT22;8838;50.144;8.176;2024-03-07T02:50:08;0.90;99.90
17442;DHT22;8838;50.144;8.176;2024-03-07T02:52:34;0.80;99.90
17442;DHT22;8838;50.144;8.176;2024-03-07T02:55:01;0.80;99.90
17442;DHT22;8838;50.144;8.176;2024-03-07T02:57:31;0.70;99.90
17442;DHT22;8838;50.144;8.176;2024-03-07T02:59:59;0.70;99.90
17442;DHT22;8838;50.144;8.176;2024-03-07T03:02:26;0.70;99.90
17442;DHT22;8838;50.144;8.176;2024-03-07T03:04:52;0.70;99.90
17442;DHT22;8838;50.144;8.176;2024-03-07T03:07:20;0.70;99.90
17442;DHT22;8838;50.144;8.176;2024-03-07T03:09:47;0.70;99.90
17442;DHT22;8838;50.144;8.176;2024-03-07T03:12:14;0.80;99.90
17442;DHT22;8838;50.144;8.176;2024-03-07T03:14:43;0.80;99.90
17442;DHT22;8838;50.144;8.176;2024-03-07T03:17:09;0.90;99.90
17442;DHT22;8838;50.144;8.176;2024-03-07T03:19:36;0.90;99.90
17442;DHT22;8838;50.144;8.176;2024-03-07T03:22:03;1.00;99.90
17442;DHT22;8838;50.144;8.176;2024-03-07T03:24:30;1.00;99.90
17442;DHT22;8838;50.144;8.176;2024-03-07T03:26:57;1.00;99.90
17442;DHT22;8838;50.144;8.176;2024-03-07T03:29:23;1.00;99.90
17442;DHT22;8838;50.144;8.176;2024-03-07T03:31:55;0.90;99.90
17442;DHT22;8838;50.144;8.176;2024-03-07T03:34:21;1.00;99.90
17442;DHT22;8838;50.144;8.176;2024-03-07T03:36:48;1.10;99.90
17442;DHT22;8838;50.144;8.176;2024-03-07T03:39:15;1.20;99.90
17442;DHT22;8838;50.144;8.176;2024-03-07T03:41:42;1.10;99.90
17442;DHT22;8838;50.144;8.176;2024-03-07T03:44:09;1.10;99.90
17442;DHT22;8838;50.144;8.176;2024-03-07T03:46:37;1.00;99.90
17442;DHT22;8838;50.144;8.176;2024-03-07T03:49:05;1.00;99.90
17442;DHT22;8838;50.144;8.176;2024-03-07T03:51:32;1.00;99.90
17442;DHT22;8838;50.144;8.176;2024-03-07T03:53:59;1.00;99.90
17442;DHT22;8838;50.144;8.176;2024-03-07T03:56:26;1.00;99.90
17442;DHT22;8838;50.144;8.176;2024-03-07T03:58:53;1.20;99.90
17442;DHT22;8838;50.144;8.176;2024-03-07T04:01:20;1.20;99.90
17442;DHT22;8838;50.144;8.176;2024-03-07T04:03:47;1.20;99.90
17442;DHT22;8838;50.144;8.176;2024-03-07T04:06:15;1.10;99.90
17442;DHT22;8838;50.144;8.176;2024-03-07T04:08:41;1.20;99.90
17442;DHT22;8838;50.144;8.176;2024-03-07T04:11:08;1.20;99.90
17442;DHT22;8838;50.144;8.176;2024-03-07T04:13:36;1.30;99.90
17442;DHT22;8838;50.144;8.176;2024-03-07T04:16:03;1.30;99.90
17442;DHT22;8838;50.144;8.176;2024-03-07T04:18:30;1.30;99.90
17442;DHT22;8838;50.144;8.176;2024-03-07T04:20:57;1.30;99.90
17442;DHT22;8838;50.144;8.176;2024-03-07T04:23:25;1.20;99.90
17442;DHT22;8838;50.144;8.176;2024-03-07T04:25:53;1.00;99.90
17442;DHT22;8838;50.144;8.176;2024-03-07T04:28:22;1.00;99.90
17442;DHT22;8838;50.144;8.176;2024-03-07T04:30:48;0.90;99.90
17442;DHT22;8838;50.144;8.176;2024-03-07T04:33:16;0.80;99.90
17442;DHT22;8838;50.144;8.176;2024-03-07T04:35:42;0.80;99.90
17442;DHT22;8838;50.144;8.176;2024-03-07T04:38:09;0.90;99.90
17442;DHT22;8838;50.144;8.176;2024-03-07T04:40:41;0.90;99.90
17442;DHT22;8838;50.144;8.176;2024-03-07T04:43:08;0.80;99.90
17442;DHT22;8838;50.144;8.176;2024-03-07T04:45:36;0.70;99.90
17442;DHT22;8838;50.144;8.176;2024-03-07T04:48:03;0.80;99.90
17442;DHT22;8838;50.144;8.176;2024-03-07T04:50:30;0.80;99.90
17442;DHT22;8838;50.144;8.176;2024-03-07T04:52:57;0.90;99.90
17442;DHT22;8838;50.144;8.176;2024-03-07T04:55:24;0.80;99.90
17442;DHT22;8838;50.144;8.176;2024-03-07T04:57:52;0.80;99.90
17442;DHT22;8838;50.144;8.176;2024-03-07T05:00:19;0.80;99.90
17442;DHT22;8838;50.144;8.176;2024-03-07T05:02:47;0.80;99.90
17442;DHT22;8838;50.144;8.176;2024-03-07T05:05:15;0.80;99.90
17442;DHT22;8838;50.144;8.176;2024-03-07T05:07:48;0.80;99.90
17442;DHT22;8838;50.144;8.176;2024-03-07T05:10:16;0.80;99.90
17442;DHT22;8838;50.144;8.176;2024-03-07T05:12:43;0.80;99.90
17442;DHT22;8838;50.144;8.176;2024-03-07T05:15:11;0.80;99.90
17442;DHT22;8838;50.144;8.176;2024-03-07T05:17:38;0.80;99.90
17442;DHT22;8838;50.144;8.176;2024-03-07T05:20:08;0.90;99.90
17442;DHT22;8838;50.144;8.176;2024-03-07T05:22:36;0.70;99.90
17442;DHT22;8838;50.144;8.176;2024-03-07T05:25:06;0.60;99.90
17442;DHT22;8838;50.144;8.176;2024-03-07T05:27:33;0.50;99.90
17442;DHT22;8838;50.144;8.176;2024-03-07T05:30:01;0.40;99.90
17442;DHT22;8838;50.144;8.176;2024-03-07T05:32:30;0.40;99.90
17442;DHT22;8838;50.144;8.176;2024-03-07T05:34:59;0.40;99.90
17442;DHT22;8838;50.144;8.176;2024-03-07T05:37:26;0.40;99.90
17442;DHT22;8838;50.144;8.176;2024-03-07T05:39:53;0.30;99.90
17442;DHT22;8838;50.144;8.176;2024-03-07T05:42:20;0.20;99.90
17442;DHT22;8838;50.144;8.176;2024-03-07T05:44:47;0.20;99.90
17442;DHT22;8838;50.144;8.176;2024-03-07T05:47:13;0.30;99.90
17442;DHT22;8838;50.144;8.176;2024-03-07T05:49:43;0.20;99.90
17442;DHT22;8838;50.144;8.176;2024-03-07T05:52:10;0.20;99.90
17442;DHT22;8838;50.144;8.176;2024-03-07T05:54:36;0.20;99.90
17442;DHT22;8838;50.144;8.176;2024-03-07T05:57:03;0.30;99.90
17442;DHT22;8838;50.144;8.176;2024-03-07T05:59:32;0.40;99.90
17442;DHT22;8838;50.144;8.176;2024-03-07T06:01:59;0.40;99.90
17442;DHT22;8838;50.144;8.176;2024-03-07T06:04:26;0.50;99.90
17442;DHT22;8838;50.144;8.176;2024-03-07T06:06:54;0.50;99.90
17442;DHT22;8838;50.144;8.176;2024-03-07T06:09:21;0.60;99.90
17442;DHT22;8838;50.144;8.176;2024-03-07T06:11:49;0.60;99.90
17442;DHT22;8838;50.144;8.176;2024-03-07T06:14:18;0.60;99.90
17442;DHT22;8838;50.144;8.176;2024-03-07T06:16:46;0.70;99.90
17442;DHT22;8838;50.144;8.176;2024-03-07T06:19:13;0.70;99.90
17442;DHT22;8838;50.144;8.176;2024-03-07T06:21:40;0.70;99.90
17442;DHT22;8838;50.144;8.176;2024-03-07T06:24:09;0.70;99.90
17442;DHT22;8838;50.144;8.176;2024-03-07T06:26:40;0.70;99.90
17442;DHT22;8838;50.144;8.176;2024-03-07T06:29:15;0.60;99.90
17442;DHT22;8838;50.144;8.176;2024-03-07T06:31:43;0.60;99.90
17442;DHT22;8838;50.144;8.176;2024-03-07T06:34:12;0.50;99.90
17442;DHT22;8838;50.144;8.176;2024-03-07T06:36:39;0.60;99.90
17442;DHT22;8838;50.144;8.176;2024-03-07T06:39:08;0.60;99.90
17442;DHT22;8838;50.144;8.176;2024-03-07T06:41:38;0.70;99.90
17442;DHT22;8838;50.144;8.176;2024-03-07T06:44:06;0.70;99.90
17442;DHT22;8838;50.144;8.176;2024-03-07T06:46:35;0.70;99.90
17442;DHT22;8838;50.144;8.176;2024-03-07T06:49:02;0.90;99.90
17442;DHT22;8838;50.144;8.176;2024-03-07T06:51:31;0.90;99.90
17442;DHT22;8838;50.144;8.176;2024-03-07T06:53:58;1.00;99.90
17442;DHT22;8838;50.144;8.176;2024-03-07T06:56:27;1.00;99.90
17442;DHT22;8838;50.144;8.176;2024-03-07T06:58:57;1.10;99.90
17442;DHT22;8838;50.144;8.176;2024-03-07T07:01:25;1.00;99.90
17442;DHT22;8838;50.144;8.176;2024-03-07T07:03:51;1.00;99.90
17442;DHT22;8838;50.144;8.176;2024-03-07T07:06:22;1.00;99.90
17442;DHT22;8838;50.144;8.176;2024-03-07T07:08:54;1.20;99.90
17442;DHT22;8838;50.144;8.176;2024-03-07T07:11:21;1.30;99.90
17442;DHT22;8838;50.144;8.176;2024-03-07T07:13:49;1.30;99.90
17442;DHT22;8838;50.144;8.176;2024-03-07T07:16:17;1.40;99.90
17442;DHT22;8838;50.144;8.176;2024-03-07T07:18:45;1.50;99.90
17442;DHT22;8838;50.144;8.176;2024-03-07T07:21:12;1.40;99.90
17442;DHT22;8838;50.144;8.176;2024-03-07T07:23:41;1.50;99.90
17442;DHT22;8838;50.144;8.176;2024-03-07T07:26:08;1.70;99.90
17442;DHT22;8838;50.144;8.176;2024-03-07T07:28:35;1.70;99.90
17442;DHT22;8838;50.144;8.176;2024-03-07T07:31:03;1.70;99.90
17442;DHT22;8838;50.144;8.176;2024-03-07T07:33:31;1.80;99.90
17442;DHT22;8838;50.144;8.176;2024-03-07T07:35:58;1.90;99.90
17442;DHT22;8838;50.144;8.176;2024-03-07T07:38:25;2.10;99.90
17442;DHT22;8838;50.144;8.176;2024-03-07T07:40:56;2.10;99.90
17442;DHT22;8838;50.144;8.176;2024-03-07T07:43:22;2.20;99.90
17442;DHT22;8838;50.144;8.176;2024-03-07T07:45:52;2.30;99.90
17442;DHT22;8838;50.144;8.176;2024-03-07T07:48:29;2.30;99.90
17442;DHT22;8838;50.144;8.176;2024-03-07T07:50:59;2.40;99.90
17442;DHT22;8838;50.144;8.176;2024-03-07T07:53:26;2.60;99.90
17442;DHT22;8838;50.144;8.176;2024-03-07T07:55:53;3.00;99.90
17442;DHT22;8838;50.144;8.176;2024-03-07T07:58:20;3.20;99.90
17442;DHT22;8838;50.144;8.176;2024-03-07T08:00:50;3.50;99.90
17442;DHT22;8838;50.144;8.176;2024-03-07T08:03:23;3.70;99.90
17442;DHT22;8838;50.144;8.176;2024-03-07T08:05:53;4.30;99.90
17442;DHT22;8838;50.144;8.176;2024-03-07T08:08:23;4.90;99.90
17442;DHT22;8838;50.144;8.176;2024-03-07T08:10:51;5.10;99.90
17442;DHT22;8838;50.144;8.176;2024-03-07T08:13:20;5.20;99.90
17442;DHT22;8838;50.144;8.176;2024-03-07T08:15:47;5.70;99.90
17442;DHT22;8838;50.144;8.176;2024-03-07T08:18:14;6.00;99.90
17442;DHT22;8838;50.144;8.176;2024-03-07T08:20:48;7.00;99.90
17442;DHT22;8838;50.144;8.176;2024-03-07T08:23:17;7.50;99.90
17442;DHT22;8838;50.144;8.176;2024-03-07T08:25:45;7.90;99.90
17442;DHT22;8838;50.144;8.176;2024-03-07T08:28:12;8.10;99.90
17442;DHT22;8838;50.144;8.176;2024-03-07T08:30:39;8.80;99.90
17442;DHT22;8838;50.144;8.176;2024-03-07T08:33:06;9.10;99.90
17442;DHT22;8838;50.144;8.176;2024-03-07T08:35:33;8.70;99.90
17442;DHT22;8838;50.144;8.176;2024-03-07T08:38:02;8.30;99.90
17442;DHT22;8838;50.144;8.176;2024-03-07T08:40:30;7.70;99.90
17442;DHT22;8838;50.144;8.176;2024-03-07T08:42:58;7.80;99.90
17442;DHT22;8838;50.144;8.176;2024-03-07T08:45:25;8.20;99.90
17442;DHT22;8838;50.144;8.176;2024-03-07T08:47:54;8.30;99.90
17442;DHT22;8838;50.144;8.176;2024-03-07T08:50:22;8.60;99.90
17442;DHT22;8838;50.144;8.176;2024-03-07T08:52:49;8.90;99.90
17442;DHT22;8838;50.144;8.176;2024-03-07T08:55:20;9.50;99.90
17442;DHT22;8838;50.144;8.176;2024-03-07T08:57:47;9.90;99.90
17442;DHT22;8838;50.144;8.176;2024-03-07T09:00:16;10.40;99.90
17442;DHT22;8838;50.144;8.176;2024-03-07T09:02:48;10.50;99.90
17442;DHT22;8838;50.144;8.176;2024-03-07T09:05:16;10.40;99.90
17442;DHT22;8838;50.144;8.176;2024-03-07T09:07:43;10.20;99.90
17442;DHT22;8838;50.144;8.176;2024-03-07T09:10:10;9.50;99.90
17442;DHT22;8838;50.144;8.176;2024-03-07T09:12:39;8.40;99.90
17442;DHT22;8838;50.144;8.176;2024-03-07T09:15:06;7.70;99.90
17442;DHT22;8838;50.144;8.176;2024-03-07T09:17:35;7.40;99.90
17442;DHT22;8838;50.144;8.176;2024-03-07T09:20:03;7.10;99.90
17442;DHT22;8838;50.144;8.176;2024-03-07T09:22:31;7.10;99.90
17442;DHT22;8838;50.144;8.176;2024-03-07T09:24:58;7.30;99.90
17442;DHT22;8838;50.144;8.176;2024-03-07T09:27:25;7.50;99.90
17442;DHT22;8838;50.144;8.176;2024-03-07T09:29:53;7.30;99.90
17442;DHT22;8838;50.144;8.176;2024-03-07T09:32:20;6.80;99.90
17442;DHT22;8838;50.144;8.176;2024-03-07T09:34:48;6.50;99.90
17442;DHT22;8838;50.144;8.176;2024-03-07T09:37:17;6.10;99.90
17442;DHT22;8838;50.144;8.176;2024-03-07T09:39:46;6.00;99.90
17442;DHT22;8838;50.144;8.176;2024-03-07T09:42:17;5.80;99.90
17442;DHT22;8838;50.144;8.176;2024-03-07T09:44:49;5.80;99.90
17442;DHT22;8838;50.144;8.176;2024-03-07T09:47:26;5.90;99.90
17442;DHT22;8838;50.144;8.176;2024-03-07T09:49:55;5.90;99.90
17442;DHT22;8838;50.144;8.176;2024-03-07T09:52:26;6.00;99.90
17442;DHT22;8838;50.144;8.176;2024-03-07T09:55:17;6.00;99.90
17442;DHT22;8838;50.144;8.176;2024-03-07T09:57:48;6.10;99.90
17442;DHT22;8838;50.144;8.176;2024-03-07T10:00:17;6.10;99.90
17442;DHT22;8838;50.144;8.176;2024-03-07T10:02:56;6.10;99.90
17442;DHT22;8838;50.144;8.176;2024-03-07T10:05:27;5.80;99.90
17442;DHT22;8838;50.144;8.176;2024-03-07T10:07:55;5.80;99.90
17442;DHT22;8838;50.144;8.176;2024-03-07T10:10:23;6.10;99.90
17442;DHT22;8838;50.144;8.176;2024-03-07T10:12:53;6.70;99.90
17442;DHT22;8838;50.144;8.176;2024-03-07T10:15:28;6.70;99.90
17442;DHT22;8838;50.144;8.176;2024-03-07T10:17:59;6.70;99.90
17442;DHT22;8838;50.144;8.176;2024-03-07T10:20:27;6.80;99.90
17442;DHT22;8838;50.144;8.176;2024-03-07T10:22:54;7.30;99.90
17442;DHT22;8838;50.144;8.176;2024-03-07T10:25:21;7.40;99.90
17442;DHT22;8838;50.144;8.176;2024-03-07T10:27:51;7.20;99.90
17442;DHT22;8838;50.144;8.176;2024-03-07T10:30:22;6.80;99.90
17442;DHT22;8838;50.144;8.176;2024-03-07T10:32:52;6.50;99.90
17442;DHT22;8838;50.144;8.176;2024-03-07T10:35:24;6.40;99.90
17442;DHT22;8838;50.144;8.176;2024-03-07T10:37:55;6.10;99.90
17442;DHT22;8838;50.144;8.176;2024-03-07T10:40:28;5.90;99.90
17442;DHT22;8838;50.144;8.176;2024-03-07T10:42:59;6.00;99.90
17442;DHT22;8838;50.144;8.176;2024-03-07T10:45:29;6.00;99.90
17442;DHT22;8838;50.144;8.176;2024-03-07T10:47:57;6.00;99.90
17442;DHT22;8838;50.144;8.176;2024-03-07T10:50:38;5.90;99.90
17442;DHT22;8838;50.144;8.176;2024-03-07T10:53:15;5.90;99.90
17442;DHT22;8838;50.144;8.176;2024-03-07T10:55:53;6.10;99.90
17442;DHT22;8838;50.144;8.176;2024-03-07T10:58:28;6.30;99.90
17442;DHT22;8838;50.144;8.176;2024-03-07T11:01:01;6.60;99.90
17442;DHT22;8838;50.144;8.176;2024-03-07T11:03:29;6.90;99.90
17442;DHT22;8838;50.144;8.176;2024-03-07T11:06:00;7.40;99.90
17442;DHT22;8838;50.144;8.176;2024-03-07T11:08:31;7.30;99.90
17442;DHT22;8838;50.144;8.176;2024-03-07T11:10:58;7.30;99.90
17442;DHT22;8838;50.144;8.176;2024-03-07T11:13:25;7.00;99.90
17442;DHT22;8838;50.144;8.176;2024-03-07T11:15:54;7.30;99.90
17442;DHT22;8838;50.144;8.176;2024-03-07T11:18:34;7.40;99.90
17442;DHT22;8838;50.144;8.176;2024-03-07T11:21:03;7.50;99.90
17442;DHT22;8838;50.144;8.176;2024-03-07T11:23:36;7.50;99.90
17442;DHT22;8838;50.144;8.176;2024-03-07T11:26:08;7.40;99.90
17442;DHT22;8838;50.144;8.176;2024-03-07T11:28:37;7.50;99.90
17442;DHT22;8838;50.144;8.176;2024-03-07T11:31:12;7.60;99.90
17442;DHT22;8838;50.144;8.176;2024-03-07T11:34:12;7.60;99.90
17442;DHT22;8838;50.144;8.176;2024-03-07T11:36:53;7.40;99.90
17442;DHT22;8838;50.144;8.176;2024-03-07T11:39:44;7.40;99.90
17442;DHT22;8838;50.144;8.176;2024-03-07T11:42:27;7.30;99.90
17442;DHT22;8838;50.144;8.176;2024-03-07T11:45:05;7.60;99.90
17442;DHT22;8838;50.144;8.176;2024-03-07T11:47:38;8.10;99.90
17442;DHT22;8838;50.144;8.176;2024-03-07T11:50:18;8.40;99.90
17442;DHT22;8838;50.144;8.176;2024-03-07T11:52:49;8.60;99.90
17442;DHT22;8838;50.144;8.176;2024-03-07T11:55:16;8.70;99.90
17442;DHT22;8838;50.144;8.176;2024-03-07T11:57:45;8.60;99.90
17442;DHT22;8838;50.144;8.176;2024-03-07T12:00:14;8.40;99.90
17442;DHT22;8838;50.144;8.176;2024-03-07T12:02:42;9.00;99.90
17442;DHT22;8838;50.144;8.176;2024-03-07T12:05:10;9.50;99.90
17442;DHT22;8838;50.144;8.176;2024-03-07T12:07:41;10.10;99.90
17442;DHT22;8838;50.144;8.176;2024-03-07T12:10:10;10.40;99.90
17442;DHT22;8838;50.144;8.176;2024-03-07T12:12:37;10.20;99.90
17442;DHT22;8838;50.144;8.176;2024-03-07T12:15:05;10.10;99.90
17442;DHT22;8838;50.144;8.176;2024-03-07T12:17:41;9.80;99.90
17442;DHT22;8838;50.144;8.176;2024-03-07T12:20:09;9.70;99.90
17442;DHT22;8838;50.144;8.176;2024-03-07T12:22:55;9.30;99.90
17442;DHT22;8838;50.144;8.176;2024-03-07T12:25:24;8.80;99.90
17442;DHT22;8838;50.144;8.176;2024-03-07T12:28:01;8.80;99.90
17442;DHT22;8838;50.144;8.176;2024-03-07T12:30:33;8.80;99.90
17442;DHT22;8838;50.144;8.176;2024-03-07T12:33:01;8.80;99.90
17442;DHT22;8838;50.144;8.176;2024-03-07T12:35:34;8.70;99.90
17442;DHT22;8838;50.144;8.176;2024-03-07T12:38:01;8.70;99.90
17442;DHT22;8838;50.144;8.176;2024-03-07T12:40:30;8.50;99.90
17442;DHT22;8838;50.144;8.176;2024-03-07T12:42:59;8.80;99.90
17442;DHT22;8838;50.144;8.176;2024-03-07T12:45:28;9.20;99.90
17442;DHT22;8838;50.144;8.176;2024-03-07T12:48:00;9.40;99.90
17442;DHT22;8838;50.144;8.176;2024-03-07T12:50:31;8.90;99.90
17442;DHT22;8838;50.144;8.176;2024-03-07T12:53:03;8.50;99.90
17442;DHT22;8838;50.144;8.176;2024-03-07T12:55:34;8.10;99.90
17442;DHT22;8838;50.144;8.176;2024-03-07T12:58:01;8.10;99.90
17442;DHT22;8838;50.144;8.176;2024-03-07T13:00:30;8.00;99.90
17442;DHT22;8838;50.144;8.176;2024-03-07T13:02:57;8.00;99.90
17442;DHT22;8838;50.144;8.176;2024-03-07T13:05:26;8.10;99.90
17442;DHT22;8838;50.144;8.176;2024-03-07T13:07:53;8.00;99.90
17442;DHT22;8838;50.144;8.176;2024-03-07T13:10:20;7.80;99.90
17442;DHT22;8838;50.144;8.176;2024-03-07T13:12:50;7.70;99.90
17442;DHT22;8838;50.144;8.176;2024-03-07T13:15:18;7.60;99.90
17442;DHT22;8838;50.144;8.176;2024-03-07T13:17:48;7.80;99.90
17442;DHT22;8838;50.144;8.176;2024-03-07T13:20:19;8.20;99.90
17442;DHT22;8838;50.144;8.176;2024-03-07T13:22:48;8.30;99.90
17442;DHT22;8838;50.144;8.176;2024-03-07T13:25:17;8.70;99.90
17442;DHT22;8838;50.144;8.176;2024-03-07T13:27:56;8.60;99.90
17442;DHT22;8838;50.144;8.176;2024-03-07T13:30:24;8.50;99.90
17442;DHT22;8838;50.144;8.176;2024-03-07T13:32:54;8.00;99.90
17442;DHT22;8838;50.144;8.176;2024-03-07T13:35:21;7.60;99.90
17442;DHT22;8838;50.144;8.176;2024-03-07T13:37:49;7.60;99.90
17442;DHT22;8838;50.144;8.176;2024-03-07T13:40:16;7.60;99.90
17442;DHT22;8838;50.144;8.176;2024-03-07T13:42:55;7.70;99.90
17442;DHT22;8838;50.144;8.176;2024-03-07T13:45:23;7.80;99.90
17442;DHT22;8838;50.144;8.176;2024-03-07T13:47:52;8.00;99.90
17442;DHT22;8838;50.144;8.176;2024-03-07T13:50:21;8.10;99.90
17442;DHT22;8838;50.144;8.176;2024-03-07T13:52:49;8.20;99.90
17442;DHT22;8838;50.144;8.176;2024-03-07T13:55:57;8.10;99.90
17442;DHT22;8838;50.144;8.176;2024-03-07T13:58:50;8.20;99.90
17442;DHT22;8838;50.144;8.176;2024-03-07T14:01:32;8.20;99.90
17442;DHT22;8838;50.144;8.176;2024-03-07T14:04:28;8.20;99.90
17442;DHT22;8838;50.144;8.176;2024-03-07T14:07:17;8.30;99.90
17442;DHT22;8838;50.144;8.176;2024-03-07T14:13:07;8.10;99.90
17442;DHT22;8838;50.144;8.176;2024-03-07T14:22:13;8.00;99.90
17442;DHT22;8838;50.144;8.176;2024-03-07T14:25:07;7.80;99.90
17442;DHT22;8838;50.144;8.176;2024-03-07T14:27:51;7.90;99.90
17442;DHT22;8838;50.144;8.176;2024-03-07T14:30:29;7.70;99.90
17442;DHT22;8838;50.144;8.176;2024-03-07T14:33:06;7.80;99.90
17442;DHT22;8838;50.144;8.176;2024-03-07T14:38:27;7.90;99.90
17442;DHT22;8838;50.144;8.176;2024-03-07T14:40:55;8.00;99.90
17442;DHT22;8838;50.144;8.176;2024-03-07T14:43:23;8.00;99.90
17442;DHT22;8838;50.144;8.176;2024-03-07T14:45:51;7.90;99.90
17442;DHT22;8838;50.144;8.176;2024-03-07T14:48:21;7.80;99.90
17442;DHT22;8838;50.144;8.176;2024-03-07T14:50:49;7.80;99.90
17442;DHT22;8838;50.144;8.176;2024-03-07T14:53:16;7.70;99.90
17442;DHT22;8838;50.144;8.176;2024-03-07T14:55:45;7.70;99.90
17442;DHT22;8838;50.144;8.176;2024-03-07T14:58:12;7.70;99.90
17442;DHT22;8838;50.144;8.176;2024-03-07T15:00:42;7.60;99.90
17442;DHT22;8838;50.144;8.176;2024-03-07T15:03:11;7.50;99.90
17442;DHT22;8838;50.144;8.176;2024-03-07T15:05:40;7.50;99.90
17442;DHT22;8838;50.144;8.176;2024-03-07T15:08:09;7.40;99.90
17442;DHT22;8838;50.144;8.176;2024-03-07T15:10:38;7.40;99.90
17442;DHT22;8838;50.144;8.176;2024-03-07T15:13:08;7.50;99.90
17442;DHT22;8838;50.144;8.176;2024-03-07T15:15:38;7.50;99.90
17442;DHT22;8838;50.144;8.176;2024-03-07T15:18:06;7.50;99.90
17442;DHT22;8838;50.144;8.176;2024-03-07T15:20:34;7.50;99.90
17442;DHT22;8838;50.144;8.176;2024-03-07T15:23:02;7.40;99.90
17442;DHT22;8838;50.144;8.176;2024-03-07T15:25:33;7.50;99.90
17442;DHT22;8838;50.144;8.176;2024-03-07T15:28:02;7.40;99.90
17442;DHT22;8838;50.144;8.176;2024-03-07T15:30:29;7.40;99.90
17442;DHT22;8838;50.144;8.176;2024-03-07T15:32:58;7.50;99.90
17442;DHT22;8838;50.144;8.176;2024-03-07T15:35:24;7.50;99.90
17442;DHT22;8838;50.144;8.176;2024-03-07T15:37:52;7.60;99.90
17442;DHT22;8838;50.144;8.176;2024-03-07T15:40:20;7.60;99.90
17442;DHT22;8838;50.144;8.176;2024-03-07T15:42:57;7.60;99.90
17442;DHT22;8838;50.144;8.176;2024-03-07T15:45:27;7.40;99.90
17442;DHT22;8838;50.144;8.176;2024-03-07T15:47:58;7.40;99.90
17442;DHT22;8838;50.144;8.176;2024-03-07T15:50:30;7.40;99.90
17442;DHT22;8838;50.144;8.176;2024-03-07T15:52:58;7.30;99.90
17442;DHT22;8838;50.144;8.176;2024-03-07T15:55:25;7.30;99.90
17442;DHT22;8838;50.144;8.176;2024-03-07T15:57:56;7.10;99.90
17442;DHT22;8838;50.144;8.176;2024-03-07T16:00:25;7.20;99.90
17442;DHT22;8838;50.144;8.176;2024-03-07T16:02:54;7.10;99.90
17442;DHT22;8838;50.144;8.176;2024-03-07T16:05:22;7.00;99.90
17442;DHT22;8838;50.144;8.176;2024-03-07T16:07:50;6.80;99.90
17442;DHT22;8838;50.144;8.176;2024-03-07T16:10:17;6.80;99.90
17442;DHT22;8838;50.144;8.176;2024-03-07T16:12:44;6.70;99.90
17442;DHT22;8838;50.144;8.176;2024-03-07T16:15:14;6.80;99.90
17442;DHT22;8838;50.144;8.176;2024-03-07T16:17:41;6.80;99.90
17442;DHT22;8838;50.144;8.176;2024-03-07T16:20:11;6.70;99.90
17442;DHT22;8838;50.144;8.176;2024-03-07T16:22:40;6.70;99.90
17442;DHT22;8838;50.144;8.176;2024-03-07T16:25:08;6.80;99.90
17442;DHT22;8838;50.144;8.176;2024-03-07T16:27:35;6.80;99.90